RJER(METAR)
10/16 15:00
RJER 160600Z 25019KT 9999 FEW040 BKN/// 12/02 Q1014 RMK A2996=
戻る
トップページへ戻る
IMOC Co,.Ltd.